Time;durP1;ratioP1;P1;durP2;ratioP2;P2;SDS_P1;SDS_P2;PMS_P1;PMS_P2;Temp;Humidity;BMP_temperature;BMP_pressure;BME280_temperature;BME280_humidity;BME280_pressure;Samples;Min_cycle;Max_cycle;Signal;HPM_P1;HPM_P2
2022/04/11 00:01:54;;;;;;;2.10;0.30;;;4.10;99.90;;;;;;5033071;28;20013;-73
2022/04/11 00:04:19;;;;;;;4.00;0.32;;;4.10;99.90;;;;;;5034641;28;20539;-73
2022/04/11 00:06:45;;;;;;;4.95;1.05;;;4.20;99.90;;;;;;5033127;28;20501;-73
2022/04/11 00:09:10;;;;;;;2.05;0.15;;;4.10;99.90;;;;;;5034326;28;20025;-73
2022/04/11 00:11:36;;;;;;;1.50;0.17;;;4.60;99.90;;;;;;5035600;28;20022;-73
2022/04/11 00:14:04;;;;;;;4.13;0.20;;;4.10;99.90;;;;;;5034066;28;20084;-73
2022/04/11 00:16:30;;;;;;;1.05;0.20;;;4.10;99.90;;;;;;5034579;28;20036;-73
2022/04/11 00:18:56;;;;;;;1.67;0.63;;;4.10;99.90;;;;;;5034322;28;20029;-73
2022/04/11 00:21:21;;;;;;;0.82;0.13;;;4.00;99.90;;;;;;5033951;28;20033;-73
2022/04/11 00:23:47;;;;;;;3.83;0.30;;;4.00;99.90;;;;;;5034331;28;20021;-73
2022/04/11 00:26:13;;;;;;;1.13;0.20;;;4.00;99.90;;;;;;5033983;28;20356;-73
2022/04/11 00:28:38;;;;;;;3.50;0.35;;;3.90;99.90;;;;;;5032823;28;20116;-73
2022/04/11 00:31:04;;;;;;;2.42;0.35;;;3.90;99.90;;;;;;5033694;28;20475;-73
2022/04/11 00:33:29;;;;;;;6.30;0.63;;;3.90;99.90;;;;;;5034116;28;20041;-73
2022/04/11 00:35:55;;;;;;;2.38;0.63;;;3.90;99.90;;;;;;5033836;28;20083;-73
2022/04/11 00:38:21;;;;;;;3.28;0.50;;;3.90;99.90;;;;;;5034010;28;20061;-73
2022/04/11 00:40:46;;;;;;;6.35;1.05;;;3.90;99.90;;;;;;5033873;28;20471;-73
2022/04/11 00:43:34;;;;;;;1.08;0.63;;;3.90;99.90;;;;;;5034071;28;20066;-73
2022/04/11 00:46:00;;;;;;;3.33;0.43;;;3.90;99.90;;;;;;5032966;28;20071;-73
2022/04/11 00:48:26;;;;;;;3.85;0.77;;;3.90;99.90;;;;;;5033806;28;20033;-73
2022/04/11 00:50:55;;;;;;;2.40;0.73;;;3.90;99.90;;;;;;5032140;28;20033;-73
2022/04/11 00:53:22;;;;;;;5.20;0.85;;;3.90;99.90;;;;;;5032417;28;20030;-73
2022/04/11 00:55:48;;;;;;;2.35;0.73;;;3.90;99.90;;;;;;5033960;28;20052;-73
2022/04/11 00:58:14;;;;;;;8.25;0.85;;;3.80;99.90;;;;;;5035118;28;20013;-74
2022/04/11 01:00:40;;;;;;;3.30;1.10;;;3.90;99.90;;;;;;5033449;28;20026;-73
2022/04/11 01:03:06;;;;;;;1.50;0.50;;;3.80;99.90;;;;;;5032160;28;20616;-73
2022/04/11 01:05:31;;;;;;;2.92;0.80;;;3.80;99.90;;;;;;5033950;28;20081;-74
2022/04/11 01:08:16;;;;;;;6.05;1.85;;;3.80;99.90;;;;;;5032340;28;20404;-74
2022/04/11 01:10:43;;;;;;;3.13;0.85;;;3.80;99.90;;;;;;5033754;28;20091;-74
2022/04/11 01:13:08;;;;;;;1.83;0.77;;;3.80;99.90;;;;;;5034370;28;20029;-74
2022/04/11 01:15:34;;;;;;;4.63;0.70;;;3.90;99.90;;;;;;5032901;28;20041;-75
2022/04/11 01:18:00;;;;;;;2.78;0.70;;;3.80;99.90;;;;;;5033353;28;20027;-74
2022/04/11 01:20:25;;;;;;;7.13;1.25;;;3.80;99.90;;;;;;5033680;28;20553;-74
2022/04/11 01:22:51;;;;;;;3.35;0.57;;;3.80;99.90;;;;;;5033043;28;20359;-74
2022/04/11 01:25:18;;;;;;;2.35;1.13;;;3.80;99.90;;;;;;5033895;28;20034;-74
2022/04/11 01:27:43;;;;;;;1.67;0.57;;;3.80;99.90;;;;;;5032346;28;20029;-74
2022/04/11 01:30:12;;;;;;;3.70;1.17;;;3.80;99.90;;;;;;5033207;28;20029;-74
2022/04/11 01:32:39;;;;;;;4.00;1.02;;;3.80;99.90;;;;;;5032097;28;20440;-74
2022/04/11 01:35:16;;;;;;;4.20;1.40;;;3.80;99.90;;;;;;5033620;28;20105;-74
2022/04/11 01:37:42;;;;;;;4.10;1.10;;;3.70;99.90;;;;;;5032027;28;20029;-74
2022/04/11 01:40:08;;;;;;;4.45;1.02;;;3.70;99.90;;;;;;5033442;28;20401;-74
2022/04/11 01:42:34;;;;;;;4.45;1.40;;;3.80;99.90;;;;;;5033532;28;20025;-74
2022/04/11 01:44:59;;;;;;;4.63;1.00;;;3.70;99.90;;;;;;5033135;28;20036;-74
2022/04/11 01:47:25;;;;;;;5.90;1.10;;;3.70;99.90;;;;;;5033090;28;20129;-74
2022/04/11 01:49:50;;;;;;;3.90;1.23;;;3.70;99.90;;;;;;5033490;28;20029;-74
2022/04/11 01:52:16;;;;;;;8.43;2.00;;;3.70;99.90;;;;;;5032868;28;20029;-74
2022/04/11 01:54:42;;;;;;;2.30;0.82;;;3.70;99.90;;;;;;5032633;28;20041;-74
2022/04/11 01:57:07;;;;;;;2.95;0.90;;;3.70;99.90;;;;;;5033861;28;20018;-74
2022/04/11 01:59:33;;;;;;;3.33;0.93;;;3.70;99.90;;;;;;5035383;28;20071;-74
2022/04/11 02:01:58;;;;;;;1.75;0.90;;;3.70;99.90;;;;;;5036827;28;20021;-74
2022/04/11 02:04:24;;;;;;;4.45;1.00;;;3.60;99.90;;;;;;5035350;28;20049;-74
2022/04/11 02:06:49;;;;;;;7.65;1.75;;;3.60;99.90;;;;;;5036433;28;20028;-74
2022/04/11 02:09:15;;;;;;;3.55;1.20;;;3.60;99.90;;;;;;5035440;28;20024;-74
2022/04/11 02:11:40;;;;;;;5.10;1.08;;;3.60;99.90;;;;;;5035187;28;20030;-74
2022/04/11 02:14:06;;;;;;;4.28;1.40;;;3.60;99.90;;;;;;5035164;28;20121;-74
2022/04/11 02:16:32;;;;;;;3.22;1.15;;;3.50;99.90;;;;;;5036622;28;20108;-74
2022/04/11 02:18:57;;;;;;;4.72;1.40;;;3.50;99.90;;;;;;5036222;28;20479;-74
2022/04/11 02:21:23;;;;;;;3.00;1.38;;;3.50;99.90;;;;;;5035172;28;20078;-74
2022/04/11 02:23:48;;;;;;;4.53;1.27;;;3.40;99.90;;;;;;5036573;28;20017;-74
2022/04/11 02:26:14;;;;;;;5.50;1.63;;;3.40;99.90;;;;;;5036390;28;20041;-74
2022/04/11 02:28:40;;;;;;;4.38;1.70;;;3.40;99.90;;;;;;5051604;28;20486;-74
2022/04/11 02:31:05;;;;;;;2.65;1.17;;;3.30;99.90;;;;;;5035864;28;20040;-74
2022/04/11 02:33:31;;;;;;;5.20;1.58;;;3.30;99.90;;;;;;5036019;28;20541;-74
2022/04/11 02:35:56;;;;;;;5.18;1.17;;;3.30;99.90;;;;;;5035492;28;20051;-74
2022/04/11 02:38:22;;;;;;;3.05;1.63;;;3.20;99.90;;;;;;5036575;28;20022;-74
2022/04/11 02:40:48;;;;;;;1.50;1.10;;;3.20;99.90;;;;;;5034583;28;20101;-74
2022/04/11 02:43:13;;;;;;;4.88;1.50;;;3.10;99.90;;;;;;5035743;28;20025;-74
2022/04/11 02:45:39;;;;;;;6.05;2.20;;;3.10;99.90;;;;;;5035119;28;20017;-74
2022/04/11 02:48:05;;;;;;;5.30;1.30;;;3.00;99.90;;;;;;5034733;28;20071;-74
2022/04/11 02:50:30;;;;;;;5.50;1.65;;;3.00;99.90;;;;;;5036057;28;20122;-74
2022/04/11 02:52:56;;;;;;;5.93;1.90;;;3.00;99.90;;;;;;5035689;28;20029;-74
2022/04/11 02:55:21;;;;;;;7.28;1.60;;;3.00;99.90;;;;;;5034234;28;20026;-74
2022/04/11 02:57:47;;;;;;;2.33;1.33;;;2.90;99.90;;;;;;5035796;28;20032;-74
2022/04/11 03:00:13;;;;;;;5.03;1.55;;;2.90;99.90;;;;;;5033838;28;20022;-74
2022/04/11 03:02:39;;;;;;;5.65;1.23;;;2.90;99.90;;;;;;5035352;28;20026;-74
2022/04/11 03:05:05;;;;;;;4.55;1.88;;;2.90;99.90;;;;;;5035530;28;20095;-74
2022/04/11 03:07:31;;;;;;;7.68;1.90;;;2.90;99.90;;;;;;5035313;28;20094;-74
2022/04/11 03:09:57;;;;;;;6.10;1.63;;;2.80;99.90;;;;;;5034782;28;20061;-74
2022/04/11 03:12:24;;;;;;;3.83;1.27;;;2.80;99.90;;;;;;5035660;28;20445;-74
2022/04/11 03:14:50;;;;;;;4.00;1.58;;;2.80;99.90;;;;;;5035625;28;20051;-75
2022/04/11 03:17:16;;;;;;;2.78;1.60;;;2.80;99.90;;;;;;5034138;28;20013;-75
2022/04/11 03:19:43;;;;;;;3.83;1.40;;;2.70;99.90;;;;;;5035502;28;20028;-75
2022/04/11 03:22:10;;;;;;;3.97;1.90;;;2.70;99.90;;;;;;5035258;28;20048;-75
2022/04/11 03:24:35;;;;;;;3.92;1.55;;;2.70;99.90;;;;;;5033457;28;20029;-75
2022/04/11 03:27:01;;;;;;;3.63;1.90;;;2.70;99.90;;;;;;5034047;28;20040;-75
2022/04/11 03:29:27;;;;;;;8.02;1.70;;;2.70;99.90;;;;;;5035187;28;20057;-75
2022/04/11 03:31:52;;;;;;;4.63;1.58;;;2.70;99.90;;;;;;5033712;28;20390;-75
2022/04/11 03:34:18;;;;;;;4.32;1.58;;;2.70;99.90;;;;;;5033613;28;20030;-75
2022/04/11 03:36:44;;;;;;;8.95;2.78;;;2.70;99.90;;;;;;5035399;28;20114;-75
2022/04/11 03:39:09;;;;;;;4.88;1.90;;;2.70;99.90;;;;;;5035290;28;20458;-75
2022/04/11 03:41:35;;;;;;;5.10;1.88;;;2.70;99.90;;;;;;5034724;28;20387;-76
2022/04/11 03:44:01;;;;;;;4.60;2.22;;;2.60;99.90;;;;;;5034599;28;20076;-76
2022/04/11 03:46:28;;;;;;;3.50;1.55;;;2.60;99.90;;;;;;5034900;28;20100;-76
2022/04/11 03:48:53;;;;;;;5.00;2.00;;;2.60;99.90;;;;;;5034091;28;20025;-76
2022/04/11 03:51:20;;;;;;;4.57;2.13;;;2.60;99.90;;;;;;5034738;28;20550;-76
2022/04/11 03:53:47;;;;;;;7.22;2.00;;;2.60;99.90;;;;;;5034715;28;20100;-76
2022/04/11 03:56:14;;;;;;;5.22;1.85;;;2.60;99.90;;;;;;5034700;28;20093;-76
2022/04/11 03:58:40;;;;;;;6.18;2.50;;;2.60;99.90;;;;;;5034593;28;20033;-76
2022/04/11 04:01:06;;;;;;;3.80;2.08;;;2.60;99.90;;;;;;5034924;28;20481;-75
2022/04/11 04:03:32;;;;;;;5.35;2.33;;;2.60;99.90;;;;;;5034082;28;20036;-75
2022/04/11 04:05:58;;;;;;;4.90;2.22;;;2.60;99.90;;;;;;5033994;28;20395;-75
2022/04/11 04:08:24;;;;;;;6.53;2.53;;;2.60;99.90;;;;;;5034311;28;20033;-75
2022/04/11 04:10:49;;;;;;;6.15;3.03;;;2.60;99.90;;;;;;5034745;28;20044;-74
2022/04/11 04:13:16;;;;;;;5.72;2.53;;;2.60;99.90;;;;;;5033938;28;20481;-75
2022/04/11 04:15:43;;;;;;;6.88;3.03;;;2.70;99.90;;;;;;5032946;28;20551;-75
2022/04/11 04:18:10;;;;;;;6.28;2.65;;;2.70;99.90;;;;;;5034303;28;20018;-75
2022/04/11 04:20:36;;;;;;;10.18;2.25;;;2.80;99.90;;;;;;5031881;28;20060;-75
2022/04/11 04:23:01;;;;;;;6.80;3.08;;;2.80;99.90;;;;;;5033111;28;20025;-75
2022/04/11 04:25:27;;;;;;;6.63;2.22;;;2.80;99.90;;;;;;5033178;28;20029;-75
2022/04/11 04:27:53;;;;;;;5.07;2.08;;;2.80;99.90;;;;;;5032124;28;20025;-75
2022/04/11 04:30:19;;;;;;;6.03;2.45;;;2.80;99.90;;;;;;5032573;28;20035;-74
2022/04/11 04:32:44;;;;;;;5.22;2.20;;;2.90;99.90;;;;;;5034500;28;20394;-74
2022/04/11 04:35:10;;;;;;;6.07;2.40;;;2.90;99.90;;;;;;5034413;28;20033;-75
2022/04/11 04:37:36;;;;;;;6.93;2.88;;;3.00;99.90;;;;;;5032801;28;20045;-75
2022/04/11 04:40:02;;;;;;;4.25;2.35;;;3.00;99.90;;;;;;5033800;28;20018;-75
2022/04/11 04:42:27;;;;;;;6.25;3.33;;;3.10;99.90;;;;;;5032272;28;20029;-75
2022/04/11 04:44:54;;;;;;;6.82;2.88;;;3.10;99.90;;;;;;5033829;28;20026;-75
2022/04/11 04:47:19;;;;;;;6.97;2.58;;;3.10;99.90;;;;;;5034155;28;20382;-75
2022/04/11 04:49:45;;;;;;;7.38;3.05;;;3.20;99.90;;;;;;5032819;28;20021;-75
2022/04/11 04:52:11;;;;;;;6.28;3.28;;;3.20;99.90;;;;;;5032625;28;20029;-75
2022/04/11 04:54:37;;;;;;;7.88;2.78;;;3.30;99.90;;;;;;5032562;28;20526;-75
2022/04/11 04:57:03;;;;;;;6.13;2.47;;;3.30;99.90;;;;;;5033575;28;20029;-75
2022/04/11 04:59:29;;;;;;;6.18;3.05;;;3.20;99.90;;;;;;5033730;28;20049;-75
2022/04/11 05:01:55;;;;;;;7.72;2.72;;;3.20;99.90;;;;;;5033598;28;20017;-75
2022/04/11 05:04:21;;;;;;;6.18;3.20;;;3.20;99.90;;;;;;5033360;28;20038;-74
2022/04/11 05:06:46;;;;;;;5.90;2.60;;;3.20;99.90;;;;;;5032454;28;20437;-75
2022/04/11 05:09:12;;;;;;;11.82;2.97;;;3.20;99.90;;;;;;5033612;28;20017;-75
2022/04/11 05:11:37;;;;;;;6.15;3.22;;;3.20;99.90;;;;;;5034348;28;20030;-75
2022/04/11 05:14:03;;;;;;;9.57;4.18;;;3.10;99.90;;;;;;5034277;28;20067;-75
2022/04/11 05:16:29;;;;;;;11.52;3.65;;;3.10;99.90;;;;;;5033798;28;20074;-75
2022/04/11 05:18:54;;;;;;;10.63;3.53;;;3.00;99.90;;;;;;5033422;28;20097;-75
2022/04/11 05:21:20;;;;;;;8.77;3.40;;;3.00;99.90;;;;;;5032098;28;20022;-75
2022/04/11 05:23:46;;;;;;;9.05;3.28;;;3.00;99.90;;;;;;5034015;28;20037;-75
2022/04/11 05:26:11;;;;;;;8.93;3.60;;;3.00;99.90;;;;;;5033870;28;20395;-73
2022/04/11 05:28:37;;;;;;;6.82;3.13;;;3.00;99.90;;;;;;5032238;28;20022;-73
2022/04/11 05:31:02;;;;;;;6.13;3.40;;;3.00;99.90;;;;;;5033389;28;20024;-72
2022/04/11 05:33:28;;;;;;;7.07;3.03;;;3.00;99.90;;;;;;5036096;28;20025;-72
2022/04/11 05:35:56;;;;;;;7.65;3.42;;;3.00;99.90;;;;;;5036007;28;20025;-72
2022/04/11 05:38:22;;;;;;;8.77;3.05;;;3.00;99.90;;;;;;5037277;28;20018;-73
2022/04/11 05:40:48;;;;;;;5.55;3.25;;;3.00;99.90;;;;;;5037230;28;20029;-72
2022/04/11 05:43:13;;;;;;;5.78;2.90;;;3.10;99.90;;;;;;5037776;28;20032;-73
2022/04/11 05:45:40;;;;;;;7.00;3.13;;;3.10;99.90;;;;;;5036981;28;20506;-73
2022/04/11 05:48:06;;;;;;;7.18;2.92;;;3.20;99.90;;;;;;5037099;28;20041;-72
2022/04/11 05:50:31;;;;;;;6.93;3.58;;;3.20;99.90;;;;;;5037558;28;20033;-72
2022/04/11 05:52:57;;;;;;;8.40;3.15;;;3.20;99.90;;;;;;5035951;28;20029;-72
2022/04/11 05:55:25;;;;;;;7.97;3.50;;;3.30;99.90;;;;;;5037593;28;20021;-72
2022/04/11 05:57:51;;;;;;;7.05;3.80;;;3.40;99.90;;;;;;5037485;28;20067;-75
2022/04/11 06:00:17;;;;;;;10.02;3.17;;;3.50;99.90;;;;;;5036370;28;20101;-73
2022/04/11 06:02:42;;;;;;;5.90;3.45;;;3.60;99.90;;;;;;5036824;28;20025;-73
2022/04/11 06:05:09;;;;;;;7.72;3.90;;;3.70;99.90;;;;;;5036354;28;20030;-73
2022/04/11 06:07:38;;;;;;;6.88;3.50;;;3.80;99.90;;;;;;5036599;28;20030;-73
2022/04/11 06:10:05;;;;;;;8.25;3.92;;;4.00;99.90;;;;;;5036571;28;20116;-73
2022/04/11 06:12:30;;;;;;;6.38;3.67;;;4.10;99.90;;;;;;5037271;28;20044;-74
2022/04/11 06:14:56;;;;;;;8.50;3.30;;;4.30;99.90;;;;;;5036593;28;20414;-74
2022/04/11 06:17:23;;;;;;;5.53;3.58;;;4.50;99.90;;;;;;5035797;28;20071;-74
2022/04/11 06:19:53;;;;;;;9.85;3.90;;;4.60;99.90;;;;;;5036850;28;20020;-74
2022/04/11 06:22:19;;;;;;;7.70;4.07;;;4.80;99.90;;;;;;5037651;28;20025;-74
2022/04/11 06:24:46;;;;;;;8.77;4.13;;;5.00;99.90;;;;;;5036666;28;20025;-74
2022/04/11 06:27:11;;;;;;;7.03;3.67;;;5.10;99.90;;;;;;5035201;28;20032;-74
2022/04/11 06:29:37;;;;;;;9.55;3.97;;;5.30;99.90;;;;;;5034941;28;20030;-74
2022/04/11 06:32:04;;;;;;;5.57;3.08;;;5.40;99.90;;;;;;5035244;28;20509;-74
2022/04/11 06:34:31;;;;;;;8.35;4.45;;;5.60;99.90;;;;;;5037157;28;20030;-73
2022/04/11 06:36:57;;;;;;;7.38;4.35;;;5.80;99.90;;;;;;5036517;28;20509;-73
2022/04/11 06:39:22;;;;;;;11.13;4.05;;;5.80;99.90;;;;;;5036253;28;20022;-73
2022/04/11 06:41:48;;;;;;;9.20;4.57;;;6.00;99.90;;;;;;5036174;28;20029;-73
2022/04/11 06:44:13;;;;;;;7.30;4.50;;;6.10;99.90;;;;;;5035185;28;20014;-73
2022/04/11 06:46:39;;;;;;;8.90;3.83;;;6.10;99.90;;;;;;5036453;28;20029;-73
2022/04/11 06:49:05;;;;;;;8.98;4.47;;;6.20;99.90;;;;;;5035132;28;20060;-73
2022/04/11 06:51:30;;;;;;;11.15;4.30;;;6.20;99.90;;;;;;5034867;28;20033;-73
2022/04/11 06:53:56;;;;;;;7.78;3.13;;;6.20;99.90;;;;;;5036786;28;20032;-73
2022/04/11 06:56:22;;;;;;;8.75;4.43;;;6.40;99.90;;;;;;5036563;28;20018;-73
2022/04/11 06:58:48;;;;;;;7.18;3.47;;;6.50;99.90;;;;;;5035149;28;20022;-73
2022/04/11 07:01:13;;;;;;;5.55;3.78;;;6.70;99.90;;;;;;5036113;28;20044;-74
2022/04/11 07:03:39;;;;;;;6.55;3.28;;;6.90;99.90;;;;;;5036416;28;20021;-74
2022/04/11 07:06:05;;;;;;;6.88;3.65;;;7.10;99.90;;;;;;5036246;28;20049;-72
2022/04/11 07:08:30;;;;;;;8.80;3.72;;;7.30;99.90;;;;;;5035735;28;20418;-72
2022/04/11 07:10:59;;;;;;;12.60;3.80;;;7.50;99.90;;;;;;5035445;28;20052;-73
2022/04/11 07:13:25;;;;;;;6.70;3.58;;;7.70;99.90;;;;;;5035800;28;20026;-73
2022/04/11 07:15:50;;;;;;;5.75;3.42;;;8.00;99.90;;;;;;5035293;28;20379;-73
2022/04/11 07:18:16;;;;;;;6.10;3.08;;;8.10;99.90;;;;;;5035577;28;20029;-73
2022/04/11 07:20:42;;;;;;;11.82;2.97;;;8.30;99.90;;;;;;5043893;23;20042;-73
2022/04/11 07:23:07;;;;;;;8.20;2.92;;;8.40;99.90;;;;;;5035399;28;20490;-73
2022/04/11 07:25:33;;;;;;;6.97;3.35;;;8.50;99.90;;;;;;5035265;28;20028;-73
2022/04/11 07:27:59;;;;;;;11.05;4.03;;;8.70;99.90;;;;;;5017536;28;20410;-73
2022/04/11 07:30:24;;;;;;;7.32;3.13;;;8.80;99.90;;;;;;5035758;28;20405;-73
2022/04/11 07:32:50;;;;;;;6.05;2.80;;;8.80;99.90;;;;;;5035289;28;20030;-73
2022/04/11 07:35:15;;;;;;;6.25;3.75;;;8.90;99.90;;;;;;5017274;28;20035;-73
2022/04/11 07:37:41;;;;;;;5.90;3.00;;;9.00;99.90;;;;;;5017413;28;20436;-73
2022/04/11 07:40:08;;;;;;;4.00;2.38;;;9.10;99.90;;;;;;5035269;28;20033;-73
2022/04/11 07:42:33;;;;;;;5.60;3.30;;;9.10;99.90;;;;;;5017369;28;20020;-73
2022/04/11 07:44:59;;;;;;;6.55;3.33;;;9.20;99.90;;;;;;5034766;28;20029;-73
2022/04/11 07:47:24;;;;;;;6.20;2.85;;;9.30;99.90;;;;;;5017140;28;20025;-73
2022/04/11 07:49:50;;;;;;;5.30;3.00;;;9.40;99.40;;;;;;5035376;28;20075;-73
2022/04/11 07:52:16;;;;;;;7.60;2.30;;;9.50;99.50;;;;;;5034670;28;20471;-73
2022/04/11 07:54:42;;;;;;;4.35;2.92;;;9.70;99.10;;;;;;5034482;28;20574;-73
2022/04/11 07:57:09;;;;;;;5.22;2.25;;;9.80;99.30;;;;;;5016904;28;20049;-73
2022/04/11 07:59:34;;;;;;;3.75;2.22;;;10.00;99.40;;;;;;5034492;28;20071;-73
2022/04/11 08:02:00;;;;;;;6.97;2.53;;;10.10;97.10;;;;;;5016794;28;20025;-73
2022/04/11 08:04:25;;;;;;;4.70;2.00;;;10.20;97.00;;;;;;5034271;28;20054;-73
2022/04/11 08:06:51;;;;;;;3.05;1.67;;;10.30;95.20;;;;;;5034396;28;20057;-73
2022/04/11 08:09:16;;;;;;;6.72;1.67;;;10.50;94.50;;;;;;5034328;28;20026;-73
2022/04/11 08:11:42;;;;;;;8.45;1.63;;;10.50;93.50;;;;;;5034403;28;20037;-73
2022/04/11 08:14:08;;;;;;;6.45;1.90;;;10.60;94.00;;;;;;5016561;28;20113;-73
2022/04/11 08:16:33;;;;;;;2.85;1.50;;;10.80;94.70;;;;;;5016239;28;20452;-73
2022/04/11 08:18:59;;;;;;;4.43;1.77;;;10.90;92.70;;;;;;5034234;28;20017;-73
2022/04/11 08:21:24;;;;;;;6.53;1.95;;;11.00;92.50;;;;;;5034116;28;20033;-73
2022/04/11 08:23:50;;;;;;;6.28;2.13;;;11.00;92.10;;;;;;5033743;28;20032;-73
2022/04/11 08:26:15;;;;;;;4.03;1.27;;;11.10;91.20;;;;;;5033664;28;20100;-73
2022/04/11 08:28:42;;;;;;;4.15;1.52;;;11.20;90.30;;;;;;5016290;28;20148;-73
2022/04/11 08:31:07;;;;;;;3.08;1.20;;;11.30;91.00;;;;;;5033542;28;20080;-73
2022/04/11 08:33:33;;;;;;;5.28;1.10;;;11.40;91.50;;;;;;5015853;28;20026;-73
2022/04/11 08:35:59;;;;;;;4.97;1.00;;;11.40;90.70;;;;;;5033963;28;20032;-73
2022/04/11 08:38:24;;;;;;;2.63;1.05;;;11.60;89.20;;;;;;5015790;28;20458;-73
2022/04/11 08:40:53;;;;;;;2.35;1.33;;;11.60;87.50;;;;;;5033382;28;20061;-73
2022/04/11 08:43:25;;;;;;;4.43;1.00;;;11.70;84.60;;;;;;5015978;28;20026;-72
2022/04/11 08:45:54;;;;;;;2.85;0.95;;;11.80;85.80;;;;;;5015832;28;20527;-73
2022/04/11 08:48:23;;;;;;;4.18;1.50;;;11.90;77.30;;;;;;5033600;28;20029;-72
2022/04/11 08:50:49;;;;;;;4.88;0.80;;;11.90;82.10;;;;;;5033287;28;20036;-72
2022/04/11 08:53:21;;;;;;;4.50;0.50;;;12.00;80.40;;;;;;5015615;28;20108;-72
2022/04/11 08:55:47;;;;;;;5.82;0.40;;;12.10;82.70;;;;;;5033222;28;20025;-72
2022/04/11 08:58:13;;;;;;;3.45;0.50;;;12.30;81.60;;;;;;5033159;28;20100;-73
2022/04/11 09:00:41;;;;;;;1.13;0.10;;;12.40;76.90;;;;;;5015503;28;20458;-74
2022/04/11 09:03:07;;;;;;;3.50;0.68;;;12.50;73.30;;;;;;5033550;28;20429;-73
2022/04/11 09:05:34;;;;;;;5.63;1.15;;;12.60;73.40;;;;;;5033144;28;20517;-76
2022/04/11 09:08:00;;;;;;;2.15;0.20;;;12.60;73.10;;;;;;5035561;28;20083;-74
2022/04/11 09:10:36;;;;;;;1.52;0.68;;;12.70;74.70;;;;;;5037274;28;20447;-74
2022/04/11 09:13:08;;;;;;;5.30;0.40;;;12.80;74.10;;;;;;5037497;28;20033;-74
2022/04/11 09:15:54;;;;;;;1.92;0.70;;;13.40;72.40;;;;;;5037142;28;20025;-76
2022/04/11 09:18:20;;;;;;;2.25;0.52;;;12.90;70.40;;;;;;5044419;28;20030;-74
2022/04/11 09:20:45;;;;;;;2.35;0.57;;;13.00;69.60;;;;;;5041596;28;20032;-74
2022/04/11 09:23:21;;;;;;;6.20;1.27;;;13.00;68.90;;;;;;5044683;28;20025;-74
2022/04/11 09:25:47;;;;;;;2.50;0.40;;;13.00;69.00;;;;;;5020297;28;20034;-74
2022/04/11 09:28:13;;;;;;;2.00;0.68;;;13.10;71.40;;;;;;5052124;28;20029;-74
2022/04/11 09:30:40;;;;;;;2.50;0.45;;;13.30;66.60;;;;;;5056981;28;20048;-74
2022/04/11 09:33:09;;;;;;;2.83;0.60;;;13.30;66.50;;;;;;5057053;28;20021;-74
2022/04/11 09:35:45;;;;;;;6.18;0.43;;;13.30;64.40;;;;;;5022172;28;20394;-74
2022/04/11 09:38:13;;;;;;;4.13;0.55;;;13.40;67.70;;;;;;5036766;28;20440;-75
2022/04/11 09:40:44;;;;;;;1.67;0.40;;;13.50;63.40;;;;;;5036621;28;20021;-75
2022/04/11 09:43:12;;;;;;;4.97;0.90;;;13.60;64.00;;;;;;5036649;28;20033;-75
2022/04/11 09:45:48;;;;;;;4.90;0.93;;;13.70;61.30;;;;;;5052857;28;20505;-75
2022/04/11 09:48:18;;;;;;;3.92;0.93;;;13.70;60.00;;;;;;5056478;28;20035;-75
2022/04/11 09:50:44;;;;;;;3.63;0.60;;;13.80;62.10;;;;;;5056259;28;20032;-75
2022/04/11 09:53:14;;;;;;;6.85;0.75;;;14.10;60.10;;;;;;5056352;28;20029;-75
2022/04/11 09:55:41;;;;;;;3.60;1.10;;;13.80;61.00;;;;;;5040342;28;20433;-75
2022/04/11 09:58:07;;;;;;;5.38;1.20;;;13.90;58.20;;;;;;5036236;28;20049;-75
2022/04/11 10:00:37;;;;;;;12.68;1.52;;;13.90;58.80;;;;;;5036110;28;20440;-74
2022/04/11 10:03:07;;;;;;;4.97;0.95;;;14.10;59.20;;;;;;5036386;28;20478;-75
2022/04/11 10:05:37;;;;;;;2.13;0.98;;;14.10;60.30;;;;;;5050030;28;20498;-75
2022/04/11 10:08:08;;;;;;;2.72;1.00;;;14.20;60.60;;;;;;5037075;28;20497;-75
2022/04/11 10:10:35;;;;;;;1.88;0.80;;;14.40;60.30;;;;;;5056257;28;20014;-75
2022/04/11 10:13:02;;;;;;;4.72;1.58;;;14.60;60.20;;;;;;5038120;28;20028;-75
2022/04/11 10:15:29;;;;;;;4.60;1.60;;;14.70;59.50;;;;;;5053549;28;20025;-75
2022/04/11 10:17:58;;;;;;;3.50;1.73;;;14.70;56.50;;;;;;5035881;28;20022;-75
2022/04/11 10:20:29;;;;;;;2.55;1.05;;;14.80;57.40;;;;;;5035977;28;20025;-74
2022/04/11 10:23:20;;;;;;;4.10;1.77;;;14.70;57.00;;;;;;5018180;28;20071;-74
2022/04/11 10:25:53;;;;;;;3.20;1.13;;;14.70;55.70;;;;;;5039659;28;20028;-74
2022/04/11 10:28:22;;;;;;;3.15;1.40;;;14.90;56.60;;;;;;5025645;28;20501;-75
2022/04/11 10:31:05;;;;;;;5.18;1.88;;;14.90;57.30;;;;;;5056079;28;20055;-75
2022/04/11 10:33:44;;;;;;;4.85;1.55;;;15.00;56.00;;;;;;5055987;28;20390;-75
2022/04/11 10:36:35;;;;;;;2.40;1.17;;;15.00;54.60;;;;;;5055446;28;20544;-74
2022/04/11 10:39:30;;;;;;;5.07;1.52;;;14.90;54.10;;;;;;5028183;28;20032;-74
2022/04/11 10:41:56;;;;;;;8.38;1.77;;;14.90;53.60;;;;;;5014916;28;20029;-75
2022/04/11 10:44:54;;;;;;;3.30;1.38;;;14.90;55.20;;;;;;5017745;28;20021;-75
2022/04/11 10:47:22;;;;;;;2.03;0.80;;;15.00;52.30;;;;;;5035517;28;20418;-75
2022/04/11 10:49:48;;;;;;;4.00;0.90;;;15.20;52.40;;;;;;5050715;28;20028;-75
2022/04/11 10:52:41;;;;;;;2.97;1.15;;;15.30;51.10;;;;;;5055453;28;20029;-75
2022/04/11 10:55:17;;;;;;;3.30;1.35;;;15.50;51.30;;;;;;5041664;28;20021;-74
2022/04/11 10:57:57;;;;;;;3.85;0.82;;;15.60;49.40;;;;;;5035283;28;20030;-75
2022/04/11 11:00:28;;;;;;;2.40;0.63;;;15.70;50.00;;;;;;5017387;28;20037;-75
2022/04/11 11:02:56;;;;;;;2.03;0.73;;;15.70;48.40;;;;;;5017373;28;20042;-75
2022/04/11 11:05:35;;;;;;;2.38;0.50;;;15.60;49.40;;;;;;5031313;28;20136;-75
2022/04/11 11:08:07;;;;;;;2.97;0.80;;;15.70;47.80;;;;;;5055111;28;20090;-75
2022/04/11 11:10:42;;;;;;;1.67;0.50;;;15.70;48.20;;;;;;5054897;28;20025;-75
2022/04/11 11:13:28;;;;;;;7.10;1.65;;;15.80;49.70;;;;;;5037018;28;20035;-74
2022/04/11 11:16:01;;;;;;;4.43;1.10;;;15.90;47.50;;;;;;5053110;28;20028;-74
2022/04/11 11:18:46;;;;;;;1.20;0.73;;;15.90;46.20;;;;;;5054800;28;20025;-75
2022/04/11 11:21:31;;;;;;;3.40;0.82;;;15.80;48.00;;;;;;5054847;28;20116;-75
2022/04/11 11:24:08;;;;;;;2.85;0.70;;;15.80;48.50;;;;;;5022583;28;20033;-75
2022/04/11 11:26:53;;;;;;;4.25;1.08;;;15.90;48.00;;;;;;5015394;28;20387;-75
2022/04/11 11:29:18;;;;;;;4.07;0.95;;;16.10;50.40;;;;;;5014695;28;20116;-75
2022/04/11 11:31:45;;;;;;;5.32;1.30;;;16.30;50.20;;;;;;5014225;28;20102;-75
2022/04/11 11:34:13;;;;;;;3.97;0.90;;;16.30;50.60;;;;;;5016548;28;20030;-75
2022/04/11 11:36:40;;;;;;;5.95;0.80;;;16.30;52.10;;;;;;5036538;28;20397;-75
2022/04/11 11:39:36;;;;;;;3.13;0.75;;;16.40;52.60;;;;;;5054351;28;20104;-75
2022/04/11 11:42:05;;;;;;;2.50;1.17;;;16.50;49.70;;;;;;5037273;28;20036;-75
2022/04/11 11:44:31;;;;;;;2.78;0.80;;;16.50;50.20;;;;;;5050805;28;20475;-75
2022/04/11 11:47:00;;;;;;;1.13;0.75;;;16.50;49.10;;;;;;5016590;28;20013;-75
2022/04/11 11:49:40;;;;;;;1.15;0.77;;;16.50;50.00;;;;;;5016556;28;20032;-75
2022/04/11 11:52:16;;;;;;;3.13;1.23;;;16.60;50.70;;;;;;5035158;28;20022;-75
2022/04/11 11:54:45;;;;;;;2.38;0.73;;;16.80;51.60;;;;;;5051572;28;20051;-74
2022/04/11 11:57:28;;;;;;;2.05;0.90;;;16.90;49.70;;;;;;5054055;28;20075;-74
2022/04/11 11:59:59;;;;;;;2.53;0.90;;;17.00;51.90;;;;;;5054269;28;20021;-74
2022/04/11 12:05:35;;;;;;;2.97;0.75;;;17.40;50.50;;;;;;5048804;28;20044;-74
2022/04/11 12:08:13;;;;;;;;;;;17.60;49.40;;;;;;5036402;28;20025;-74
2022/04/11 12:10:44;;;;;;;1.10;0.52;;;17.80;50.10;;;;;;5035744;28;20289;-74
2022/04/11 12:13:11;;;;;;;2.85;0.77;;;17.70;48.40;;;;;;5053729;28;20436;-74
2022/04/11 12:15:37;;;;;;;4.88;1.58;;;17.80;49.00;;;;;;5033694;28;20108;-74
2022/04/11 12:18:09;;;;;;;5.05;1.00;;;17.90;49.80;;;;;;5015939;28;20032;-74
2022/04/11 12:20:36;;;;;;;2.40;0.85;;;18.10;49.20;;;;;;5033403;28;20083;-74
2022/04/11 12:23:15;;;;;;;2.67;0.73;;;18.40;50.10;;;;;;5033589;28;20479;-74
2022/04/11 12:25:54;;;;;;;2.55;0.88;;;18.50;48.10;;;;;;5053245;28;20051;-74
2022/04/11 12:28:27;;;;;;;2.50;0.40;;;18.70;48.80;;;;;;5053308;28;20028;-74
2022/04/11 12:31:02;;;;;;;3.35;0.35;;;19.00;46.60;;;;;;5053360;28;20033;-74
2022/04/11 12:33:39;;;;;;;3.22;0.82;;;19.20;46.40;;;;;;5051776;28;20451;-74
2022/04/11 12:36:05;;;;;;;4.93;0.52;;;19.30;46.10;;;;;;5018572;28;20059;-74
2022/04/11 12:38:50;;;;;;;3.03;0.40;;;19.40;46.30;;;;;;5053302;28;20087;-74
2022/04/11 12:41:27;;;;;;;2.35;0.55;;;19.40;45.30;;;;;;5053257;28;20029;-72
2022/04/11 12:44:11;;;;;;;3.03;0.55;;;19.40;46.00;;;;;;5053132;28;20028;-71
2022/04/11 12:47:04;;;;;;;1.42;0.35;;;19.50;46.00;;;;;;5028096;28;20401;-72
2022/04/11 12:49:43;;;;;;;2.20;0.40;;;19.60;46.90;;;;;;5033629;28;20029;-72
2022/04/11 12:52:09;;;;;;;3.00;0.38;;;19.70;45.10;;;;;;5033287;28;20033;-72
2022/04/11 12:54:43;;;;;;;5.25;0.60;;;19.90;46.40;;;;;;5033275;28;20517;-72
2022/04/11 12:57:12;;;;;;;3.35;0.38;;;20.00;46.50;;;;;;5016000;28;20370;-72
2022/04/11 12:59:40;;;;;;;2.90;0.20;;;20.30;46.00;;;;;;5033233;28;20478;-72
2022/04/11 13:02:19;;;;;;;1.88;0.47;;;20.30;45.20;;;;;;5015628;28;20045;-74